createdAt,value
2023-04-18T00:01:17.028Z,11.10
2023-04-18T00:03:43.600Z,11.60
2023-04-18T00:06:10.454Z,11.02
2023-04-18T00:08:37.058Z,11.25
2023-04-18T00:11:03.482Z,11.55
2023-04-18T00:13:29.811Z,10.88
2023-04-18T00:15:56.153Z,10.30
2023-04-18T00:18:22.523Z,12.45
2023-04-18T00:20:49.226Z,11.63
2023-04-18T00:23:16.025Z,10.77
2023-04-18T00:25:42.532Z,11.45
2023-04-18T00:28:09.012Z,12.38
2023-04-18T00:30:35.395Z,12.32
2023-04-18T00:33:01.824Z,10.77
2023-04-18T00:35:28.386Z,11.38
2023-04-18T00:37:54.757Z,10.70
2023-04-18T00:40:21.247Z,11.68
2023-04-18T00:42:47.566Z,11.75
2023-04-18T00:45:13.918Z,10.25
2023-04-18T00:47:40.293Z,10.13
2023-04-18T00:50:06.995Z,10.25
2023-04-18T00:52:33.440Z,9.73
2023-04-18T00:54:59.791Z,11.13
2023-04-18T00:57:26.207Z,10.52
2023-04-18T00:59:52.551Z,12.05
2023-04-18T01:02:19.264Z,10.43
2023-04-18T01:04:46.599Z,12.35
2023-04-18T01:07:13.337Z,11.45
2023-04-18T01:09:40.646Z,11.13
2023-04-18T01:12:07.047Z,10.55
2023-04-18T01:14:33.536Z,10.73
2023-04-18T01:16:59.926Z,10.35
2023-04-18T01:19:26.249Z,11.60
2023-04-18T01:21:52.664Z,10.73
2023-04-18T01:24:19.061Z,12.10
2023-04-18T01:26:45.912Z,11.60
2023-04-18T01:29:13.060Z,10.60
2023-04-18T01:31:39.752Z,10.48
2023-04-18T01:34:07.237Z,10.82
2023-04-18T01:36:33.695Z,12.93
2023-04-18T01:39:00.040Z,10.90
2023-04-18T01:41:26.455Z,11.82
2023-04-18T01:43:53.360Z,12.55
2023-04-18T01:46:20.108Z,10.32
2023-04-18T01:48:46.821Z,10.93
2023-04-18T01:51:13.707Z,11.10
2023-04-18T01:53:40.315Z,10.63
2023-04-18T01:56:06.692Z,10.80
2023-04-18T01:58:33.044Z,10.65
2023-04-18T02:00:59.811Z,10.52
2023-04-18T02:03:26.435Z,11.75
2023-04-18T02:05:52.827Z,10.40
2023-04-18T02:08:19.168Z,11.05
2023-04-18T02:10:45.763Z,9.75
2023-04-18T02:13:12.167Z,10.10
2023-04-18T02:15:38.573Z,10.15
2023-04-18T02:18:04.923Z,11.05
2023-04-18T02:20:31.254Z,9.90
2023-04-18T02:22:57.758Z,10.35
2023-04-18T02:25:24.138Z,11.10
2023-04-18T02:27:50.506Z,9.95
2023-04-18T02:30:16.879Z,9.23
2023-04-18T02:32:43.284Z,10.13
2023-04-18T02:35:09.757Z,10.48
2023-04-18T02:37:36.358Z,10.50
2023-04-18T02:40:03.004Z,11.55
2023-04-18T02:42:29.611Z,10.90
2023-04-18T02:44:56.563Z,11.02
2023-04-18T02:47:23.493Z,10.55
2023-04-18T02:49:49.995Z,11.13
2023-04-18T02:52:16.423Z,10.63
2023-04-18T02:54:43.042Z,10.88
2023-04-18T02:57:09.384Z,15.00
2023-04-18T02:59:35.750Z,11.45
2023-04-18T03:02:02.210Z,11.13
2023-04-18T03:04:28.911Z,10.65
2023-04-18T03:06:55.525Z,10.93
2023-04-18T03:09:21.871Z,11.82
2023-04-18T03:11:48.942Z,11.27
2023-04-18T03:14:15.356Z,11.77
2023-04-18T03:16:42.169Z,9.90
2023-04-18T03:19:08.568Z,9.52
2023-04-18T03:21:34.906Z,9.50
2023-04-18T03:24:01.615Z,11.60
2023-04-18T03:26:28.204Z,10.85
2023-04-18T03:28:54.834Z,11.52
2023-04-18T03:31:21.231Z,10.52
2023-04-18T03:33:48.023Z,9.57
2023-04-18T03:36:14.879Z,9.43
2023-04-18T03:38:41.273Z,10.02
2023-04-18T03:41:07.602Z,10.20
2023-04-18T03:43:33.999Z,9.68
2023-04-18T03:46:00.748Z,9.80
2023-04-18T03:48:27.359Z,10.52
2023-04-18T03:50:53.940Z,11.93
2023-04-18T03:53:20.726Z,9.35
2023-04-18T03:55:47.387Z,11.13
2023-04-18T03:58:13.801Z,12.27
2023-04-18T04:00:40.477Z,10.55
2023-04-18T04:03:07.638Z,10.88
2023-04-18T04:05:34.306Z,11.57
2023-04-18T04:08:01.141Z,10.25
2023-04-18T04:10:27.786Z,11.77
2023-04-18T04:12:54.359Z,10.07
2023-04-18T04:15:21.176Z,12.38
2023-04-18T04:17:47.546Z,11.38
2023-04-18T04:20:14.151Z,9.88
2023-04-18T04:22:40.609Z,10.68
2023-04-18T04:25:07.664Z,11.55
2023-04-18T04:27:34.593Z,10.98
2023-04-18T04:30:00.959Z,12.13
2023-04-18T04:32:28.006Z,11.13
2023-04-18T04:34:54.992Z,10.88
2023-04-18T04:37:21.368Z,9.73
2023-04-18T04:39:48.303Z,10.65
2023-04-18T04:42:14.921Z,10.85
2023-04-18T04:44:41.924Z,11.27
2023-04-18T04:47:08.334Z,9.82
2023-04-18T04:49:35.136Z,11.05
2023-04-18T04:52:02.070Z,12.15
2023-04-18T04:54:29.185Z,10.93
2023-04-18T04:56:55.554Z,10.90
2023-04-18T04:59:22.171Z,11.23
2023-04-18T05:01:49.136Z,11.15
2023-04-18T05:04:15.715Z,11.02
2023-04-18T05:06:42.375Z,11.23
2023-04-18T05:09:09.114Z,11.82
2023-04-18T05:11:35.926Z,10.75
2023-04-18T05:14:02.252Z,14.73
2023-04-18T05:16:28.648Z,11.95
2023-04-18T05:18:55.663Z,12.68
2023-04-18T05:21:22.084Z,12.05
2023-04-18T05:23:48.955Z,11.82
2023-04-18T05:26:15.754Z,12.75
2023-04-18T05:28:42.145Z,11.80
2023-04-18T05:31:08.586Z,12.52
2023-04-18T05:33:35.653Z,11.35
2023-04-18T05:36:02.165Z,13.13
2023-04-18T05:38:28.655Z,11.02
2023-04-18T05:40:55.075Z,12.02
2023-04-18T05:43:22.136Z,13.32
2023-04-18T05:45:48.580Z,13.30
2023-04-18T05:48:14.992Z,11.70
2023-04-18T05:50:41.550Z,11.70
2023-04-18T05:53:08.113Z,11.25
2023-04-18T05:55:34.658Z,13.65
2023-04-18T05:58:01.256Z,12.27
2023-04-18T06:00:27.992Z,13.68
2023-04-18T06:02:55.264Z,13.48
2023-04-18T06:05:22.337Z,13.27
2023-04-18T06:07:49.139Z,13.32
2023-04-18T06:10:15.547Z,13.07
2023-04-18T06:12:42.102Z,12.60
2023-04-18T06:15:08.529Z,12.30
2023-04-18T06:17:34.963Z,12.82
2023-04-18T06:20:01.643Z,11.70
2023-04-18T06:22:28.350Z,13.18
2023-04-18T06:24:54.727Z,12.65
2023-04-18T06:27:30.598Z,12.77
2023-04-18T06:29:57.931Z,14.63
2023-04-18T06:32:24.554Z,12.95
2023-04-18T06:34:51.520Z,11.98
2023-04-18T06:37:17.918Z,13.63
2023-04-18T06:39:44.552Z,12.32
2023-04-18T06:42:11.215Z,12.23
2023-04-18T06:44:37.621Z,12.02
2023-04-18T06:47:04.066Z,14.15
2023-04-18T06:49:30.960Z,13.60
2023-04-18T06:51:57.506Z,13.95
2023-04-18T06:54:23.839Z,13.13
2023-04-18T06:56:50.134Z,14.05
2023-04-18T06:59:16.789Z,13.57
2023-04-18T07:01:43.234Z,13.45
2023-04-18T07:04:09.842Z,14.38
2023-04-18T07:06:36.415Z,12.98
2023-04-18T07:09:03.048Z,13.93
2023-04-18T07:11:29.405Z,13.35
2023-04-18T07:13:56.012Z,13.32
2023-04-18T07:16:22.405Z,14.55
2023-04-18T07:18:48.931Z,11.65
2023-04-18T07:21:15.568Z,13.15
2023-04-18T07:23:42.026Z,13.95
2023-04-18T07:26:08.474Z,12.63
2023-04-18T07:28:35.218Z,13.23
2023-04-18T07:31:01.616Z,12.38
2023-04-18T07:33:27.999Z,14.13
2023-04-18T07:35:54.603Z,15.27
2023-04-18T07:38:21.830Z,13.40
2023-04-18T07:40:48.465Z,13.45
2023-04-18T07:43:14.911Z,14.98
2023-04-18T07:45:41.930Z,14.00
2023-04-18T07:48:08.572Z,12.38
2023-04-18T07:50:35.038Z,12.82
2023-04-18T07:53:01.318Z,16.38
2023-04-18T07:55:27.710Z,13.45
2023-04-18T07:57:54.506Z,13.65
2023-04-18T08:00:21.230Z,15.00
2023-04-18T08:02:48.000Z,13.93
2023-04-18T08:05:14.567Z,17.60
2023-04-18T08:07:41.194Z,14.88
2023-04-18T08:10:07.585Z,15.07
2023-04-18T08:12:33.983Z,13.70
2023-04-18T08:15:00.754Z,14.32
2023-04-18T08:17:27.746Z,14.20
2023-04-18T08:19:54.941Z,14.73
2023-04-18T08:22:21.667Z,14.55
2023-04-18T08:25:03.280Z,14.27
2023-04-18T08:27:30.528Z,13.02
2023-04-18T08:29:56.914Z,16.38
2023-04-18T08:32:23.274Z,13.73
2023-04-18T08:34:49.780Z,15.85
2023-04-18T08:37:16.211Z,14.65
2023-04-18T08:39:42.996Z,15.00
2023-04-18T08:42:09.434Z,16.98
2023-04-18T08:44:35.795Z,14.20
2023-04-18T08:47:02.186Z,15.48
2023-04-18T08:49:28.542Z,15.18
2023-04-18T08:51:55.524Z,14.35
2023-04-18T08:54:21.858Z,13.85
2023-04-18T08:56:48.325Z,15.27
2023-04-18T08:59:14.944Z,14.70
2023-04-18T09:01:41.743Z,15.85
2023-04-18T09:04:08.520Z,14.07
2023-04-18T09:06:34.956Z,15.88
2023-04-18T09:09:01.329Z,14.23
2023-04-18T09:11:27.708Z,14.75
2023-04-18T09:13:54.186Z,16.25
2023-04-18T09:16:20.664Z,14.77
2023-04-18T09:18:47.348Z,15.52
2023-04-18T09:21:13.778Z,15.35
2023-04-18T09:23:40.169Z,16.10
2023-04-18T09:26:07.171Z,16.33
2023-04-18T09:28:33.540Z,15.30
2023-04-18T09:30:59.869Z,13.48
2023-04-18T09:33:26.289Z,15.30
2023-04-18T09:35:53.279Z,16.20
2023-04-18T09:38:20.394Z,16.27
2023-04-18T09:40:47.085Z,16.30
2023-04-18T09:43:13.617Z,15.70
2023-04-18T09:45:39.988Z,16.23
2023-04-18T09:48:06.451Z,14.68
2023-04-18T09:50:33.205Z,17.40
2023-04-18T09:52:59.913Z,18.35
2023-04-18T09:55:26.286Z,16.95
2023-04-18T09:57:52.840Z,17.80
2023-04-18T10:00:20.140Z,17.27
2023-04-18T10:02:47.222Z,18.00
2023-04-18T10:05:14.874Z,17.52
2023-04-18T10:07:41.571Z,19.77
2023-04-18T10:10:08.219Z,19.20
2023-04-18T10:12:34.874Z,18.75
2023-04-18T10:15:01.239Z,17.35
2023-04-18T10:17:29.412Z,18.60
2023-04-18T10:19:56.596Z,19.35
2023-04-18T10:22:23.050Z,19.17
2023-04-18T10:24:49.670Z,19.45
2023-04-18T10:27:16.350Z,21.08
2023-04-18T10:29:42.683Z,21.25
2023-04-18T10:32:09.699Z,21.23
2023-04-18T10:34:36.259Z,23.83
2023-04-18T10:37:02.628Z,21.48
2023-04-18T10:39:29.328Z,25.75
2023-04-18T10:41:56.070Z,26.33
2023-04-18T10:44:22.855Z,27.23
2023-04-18T10:46:49.793Z,33.65
2023-04-18T10:49:16.330Z,27.35
2023-04-18T10:51:42.776Z,29.83
2023-04-18T10:54:09.210Z,29.65
2023-04-18T10:56:35.611Z,27.95
2023-04-18T10:59:02.039Z,29.33
2023-04-18T11:01:32.136Z,35.15
2023-04-18T11:03:59.811Z,29.10
2023-04-18T11:06:26.323Z,33.13
2023-04-18T11:08:53.139Z,36.28
2023-04-18T11:11:20.125Z,28.25
2023-04-18T11:13:47.429Z,32.58
2023-04-18T11:16:13.877Z,37.38
2023-04-18T11:18:40.441Z,28.80
2023-04-18T11:21:07.234Z,31.83
2023-04-18T11:23:33.639Z,30.33
2023-04-18T11:26:00.534Z,29.80
2023-04-18T11:28:27.162Z,29.98
2023-04-18T11:30:53.605Z,30.15
2023-04-18T11:33:20.504Z,31.70
2023-04-18T11:35:46.908Z,33.13
2023-04-18T11:38:14.390Z,35.03
2023-04-18T11:40:41.477Z,41.58
2023-04-18T11:43:07.915Z,37.30
2023-04-18T11:45:34.362Z,41.10
2023-04-18T11:48:00.777Z,39.85
2023-04-18T11:50:27.311Z,46.28
2023-04-18T11:52:53.685Z,46.35
2023-04-18T11:55:21.137Z,53.33
2023-04-18T11:57:47.527Z,52.00
2023-04-18T12:00:14.088Z,57.40
2023-04-18T12:02:40.813Z,73.90
2023-04-18T12:05:07.669Z,71.28
2023-04-18T12:07:34.359Z,74.22
2023-04-18T12:10:00.824Z,115.93
2023-04-18T12:12:27.598Z,123.68
2023-04-18T12:14:54.103Z,156.13
2023-04-18T12:17:20.797Z,163.82
2023-04-18T12:19:49.200Z,137.63
2023-04-18T12:22:16.161Z,137.63
2023-04-18T12:24:42.477Z,143.18
2023-04-18T12:27:09.230Z,141.90
2023-04-18T12:29:35.561Z,139.63
2023-04-18T12:32:02.068Z,125.88
2023-04-18T12:34:28.923Z,121.55
2023-04-18T12:36:55.362Z,127.97
2023-04-18T12:39:21.725Z,120.22
2023-04-18T12:41:49.757Z,134.45
2023-04-18T12:44:16.612Z,118.68
2023-04-18T12:46:43.418Z,118.40
2023-04-18T12:49:09.824Z,119.22
2023-04-18T12:51:36.362Z,120.10
2023-04-18T12:54:02.998Z,119.70
2023-04-18T12:56:29.479Z,133.13
2023-04-18T12:58:55.796Z,116.70
2023-04-18T13:01:22.123Z,116.57
2023-04-18T13:03:56.269Z,106.25
2023-04-18T13:06:30.657Z,106.68
2023-04-18T13:08:57.197Z,105.43
2023-04-18T13:11:23.531Z,91.07
2023-04-18T13:13:50.203Z,101.72
2023-04-18T13:16:16.597Z,105.38
2023-04-18T13:18:43.116Z,99.03
2023-04-18T13:21:09.482Z,96.95
2023-04-18T13:23:35.838Z,102.35
2023-04-18T13:26:02.208Z,89.63
2023-04-18T13:28:29.006Z,95.07
2023-04-18T13:30:55.708Z,97.95
2023-04-18T13:33:22.155Z,94.82
2023-04-18T13:35:48.561Z,89.63
2023-04-18T13:38:14.963Z,93.15
2023-04-18T13:40:41.369Z,92.00
2023-04-18T13:43:07.754Z,86.55
2023-04-18T13:45:34.118Z,94.28
2023-04-18T13:48:00.452Z,95.32
2023-04-18T13:50:27.149Z,91.63
2023-04-18T13:52:53.539Z,88.88
2023-04-18T13:55:20.088Z,94.55
2023-04-18T13:57:46.403Z,93.00
2023-04-18T14:00:12.966Z,87.65
2023-04-18T14:02:39.878Z,89.85
2023-04-18T14:05:06.398Z,87.30
2023-04-18T14:07:32.827Z,86.97
2023-04-18T14:09:59.615Z,86.63
2023-04-18T14:12:26.077Z,86.18
2023-04-18T14:14:52.680Z,82.63
2023-04-18T14:17:19.274Z,81.32
2023-04-18T14:19:45.635Z,82.97
2023-04-18T14:22:12.047Z,80.25
2023-04-18T14:24:38.555Z,83.88
2023-04-18T14:27:04.942Z,80.75
2023-04-18T14:29:31.428Z,77.70
2023-04-18T14:31:57.755Z,80.57
2023-04-18T14:34:24.225Z,82.43
2023-04-18T14:36:50.753Z,73.07
2023-04-18T14:39:17.248Z,77.32
2023-04-18T14:41:43.683Z,84.88
2023-04-18T14:44:10.107Z,78.45
2023-04-18T14:46:36.557Z,71.38
2023-04-18T14:49:02.971Z,80.05
2023-04-18T14:51:29.323Z,77.60
2023-04-18T14:53:55.844Z,76.30
2023-04-18T14:56:22.243Z,76.60
2023-04-18T14:58:48.931Z,77.15
2023-04-18T15:01:15.269Z,71.38
2023-04-18T15:03:41.747Z,73.25
2023-04-18T15:06:08.283Z,70.38
2023-04-18T15:08:34.645Z,75.20
2023-04-18T15:11:01.043Z,74.82
2023-04-18T15:13:27.752Z,71.68
2023-04-18T15:15:54.090Z,67.78
2023-04-18T15:18:20.471Z,71.45
2023-04-18T15:20:47.009Z,67.78
2023-04-18T15:23:13.486Z,64.30
2023-04-18T15:25:40.262Z,68.10
2023-04-18T15:28:06.980Z,66.03
2023-04-18T15:30:33.355Z,65.70
2023-04-18T15:32:59.842Z,67.00
2023-04-18T15:35:26.250Z,63.80
2023-04-18T15:37:53.058Z,72.97
2023-04-18T15:40:19.883Z,68.53
2023-04-18T15:42:46.327Z,65.55
2023-04-18T15:45:12.677Z,69.60
2023-04-18T15:47:39.582Z,62.35
2023-04-18T15:50:06.040Z,63.55
2023-04-18T15:52:32.436Z,64.50
2023-04-18T15:54:58.951Z,66.47
2023-04-18T15:57:25.371Z,63.33
2023-04-18T15:59:51.686Z,67.25
2023-04-18T16:02:18.139Z,61.97
2023-04-18T16:04:45.088Z,62.42
2023-04-18T16:07:11.732Z,59.67
2023-04-18T16:09:38.098Z,58.78
2023-04-18T16:12:04.767Z,65.43
2023-04-18T16:14:31.172Z,60.65
2023-04-18T16:17:00.509Z,56.50
2023-04-18T16:19:27.135Z,59.13
2023-04-18T16:21:53.743Z,62.75
2023-04-18T16:24:20.458Z,60.75
2023-04-18T16:26:47.153Z,55.88
2023-04-18T16:29:13.598Z,54.05
2023-04-18T16:31:40.171Z,59.10
2023-04-18T16:34:06.806Z,59.25
2023-04-18T16:36:33.352Z,60.70
2023-04-18T16:38:59.692Z,57.17
2023-04-18T16:41:26.056Z,56.38
2023-04-18T16:43:52.566Z,55.10
2023-04-18T16:46:19.391Z,59.22
2023-04-18T16:48:46.464Z,192.77
2023-04-18T16:51:13.152Z,267.98
2023-04-18T16:53:39.662Z,239.88
2023-04-18T16:56:06.141Z,174.20
2023-04-18T16:58:32.497Z,261.45
2023-04-18T17:00:59.894Z,481.00
2023-04-18T17:03:27.016Z,419.75
2023-04-18T17:05:53.603Z,386.90
2023-04-18T17:08:20.510Z,361.98
2023-04-18T17:10:47.562Z,351.98
2023-04-18T17:13:14.641Z,325.30
2023-04-18T17:15:41.146Z,301.58
2023-04-18T17:18:07.524Z,284.13
2023-04-18T17:20:34.422Z,265.92
2023-04-18T17:23:00.897Z,256.08
2023-04-18T17:25:27.373Z,238.77
2023-04-18T17:27:53.781Z,239.18
2023-04-18T17:30:20.654Z,226.00
2023-04-18T17:32:47.767Z,213.00
2023-04-18T17:35:14.209Z,211.38
2023-04-18T17:37:40.590Z,199.82
2023-04-18T17:40:06.964Z,187.35
2023-04-18T17:42:33.305Z,184.77
2023-04-18T17:45:00.399Z,176.55
2023-04-18T17:47:26.868Z,166.05
2023-04-18T17:49:53.324Z,163.07
2023-04-18T17:52:19.663Z,164.00
2023-04-18T17:54:46.135Z,153.25
2023-04-18T17:57:12.503Z,149.43
2023-04-18T17:59:39.238Z,149.73
2023-04-18T18:02:05.706Z,144.88
2023-04-18T18:04:32.339Z,344.77
2023-04-18T18:06:58.933Z,359.70
2023-04-18T18:09:25.434Z,311.83
2023-04-18T18:11:54.688Z,283.98
2023-04-18T18:14:22.269Z,261.58
2023-04-18T18:16:49.080Z,238.90
2023-04-18T18:19:15.822Z,213.93
2023-04-18T18:21:42.256Z,194.40
2023-04-18T18:24:09.186Z,186.77
2023-04-18T18:26:35.594Z,171.00
2023-04-18T18:29:02.312Z,169.55
2023-04-18T18:31:28.660Z,161.90
2023-04-18T18:33:55.200Z,158.93
2023-04-18T18:36:21.486Z,192.95
2023-04-18T18:38:48.226Z,170.57
2023-04-18T18:41:14.582Z,160.68
2023-04-18T18:43:40.913Z,151.85
2023-04-18T18:46:07.854Z,147.55
2023-04-18T18:48:34.289Z,141.93
2023-04-18T18:51:00.663Z,137.60
2023-04-18T18:53:27.707Z,295.52
2023-04-18T18:55:54.210Z,325.85
2023-04-18T18:58:20.701Z,282.17
2023-04-18T19:00:47.140Z,258.63
2023-04-18T19:03:14.061Z,246.77
2023-04-18T19:05:40.729Z,237.00
2023-04-18T19:08:07.462Z,219.50
2023-04-18T19:10:33.790Z,211.45
2023-04-18T19:13:00.295Z,201.18
2023-04-18T19:15:26.671Z,195.13
2023-04-18T19:17:52.995Z,184.07
2023-04-18T19:20:19.638Z,173.27
2023-04-18T19:22:45.995Z,166.10
2023-04-18T19:25:12.387Z,164.35
2023-04-18T19:27:38.771Z,335.00
2023-04-18T19:30:05.203Z,380.60
2023-04-18T19:32:31.760Z,313.45
2023-04-18T19:34:58.098Z,297.40
2023-04-18T19:37:25.297Z,284.27
2023-04-18T19:39:51.607Z,266.90
2023-04-18T19:42:18.269Z,250.90
2023-04-18T19:44:45.703Z,242.57
2023-04-18T19:47:12.077Z,366.08
2023-04-18T19:49:38.666Z,432.98
2023-04-18T19:52:05.356Z,395.30
2023-04-18T19:54:32.420Z,369.85
2023-04-18T19:56:58.964Z,355.23
2023-04-18T19:59:25.436Z,337.58
2023-04-18T20:01:51.995Z,312.83
2023-04-18T20:04:19.004Z,278.13
2023-04-18T20:06:45.414Z,258.55
2023-04-18T20:09:12.099Z,227.75
2023-04-18T20:11:39.201Z,206.00
2023-04-18T20:14:05.731Z,192.18
2023-04-18T20:16:32.180Z,272.70
2023-04-18T20:18:58.905Z,402.20
2023-04-18T20:21:25.200Z,368.08
2023-04-18T20:23:52.038Z,330.90
2023-04-18T20:26:18.385Z,315.50
2023-04-18T20:28:44.782Z,300.55
2023-04-18T20:31:11.671Z,287.40
2023-04-18T20:33:38.144Z,273.08
2023-04-18T20:36:04.884Z,255.63
2023-04-18T20:38:31.239Z,253.98
2023-04-18T20:40:57.557Z,240.43
2023-04-18T20:43:24.050Z,230.40
2023-04-18T20:45:50.395Z,223.32
2023-04-18T20:48:16.745Z,208.45
2023-04-18T20:50:43.197Z,205.27
2023-04-18T20:53:09.596Z,195.88
2023-04-18T20:55:35.994Z,182.82
2023-04-18T20:58:02.730Z,184.98
2023-04-18T21:00:29.100Z,171.93
2023-04-18T21:02:55.722Z,216.90
2023-04-18T21:05:22.223Z,260.58
2023-04-18T21:07:48.978Z,271.65
2023-04-18T21:10:15.403Z,276.30
2023-04-18T21:12:41.807Z,257.08
2023-04-18T21:15:08.258Z,252.10
2023-04-18T21:17:35.060Z,236.15
2023-04-18T21:20:01.727Z,313.80
2023-04-18T21:22:28.677Z,322.38
2023-04-18T21:24:55.402Z,311.88
2023-04-18T21:27:21.695Z,300.20
2023-04-18T21:29:48.011Z,279.20
2023-04-18T21:32:14.756Z,273.35
2023-04-18T21:34:41.117Z,260.42
2023-04-18T21:37:07.713Z,244.50
2023-04-18T21:39:34.126Z,232.15
2023-04-18T21:42:01.196Z,229.45
2023-04-18T21:44:27.596Z,217.80
2023-04-18T21:46:53.947Z,467.05
2023-04-18T21:49:20.260Z,418.35
2023-04-18T21:51:46.816Z,402.83
2023-04-18T21:54:13.506Z,377.08
2023-04-18T21:56:41.522Z,357.50
2023-04-18T21:59:08.637Z,342.77
2023-04-18T22:01:35.035Z,325.92
2023-04-18T22:04:01.703Z,318.77
2023-04-18T22:06:28.401Z,304.42
2023-04-18T22:08:54.710Z,397.55
2023-04-18T22:11:21.610Z,460.75
2023-04-18T22:13:48.068Z,423.00
2023-04-18T22:16:14.703Z,404.33
2023-04-18T22:18:41.774Z,386.85
2023-04-18T22:21:08.402Z,464.02
2023-04-18T22:23:34.740Z,550.03
2023-04-18T22:26:01.140Z,489.80
2023-04-18T22:28:27.495Z,483.15
2023-04-18T22:30:53.994Z,463.40
2023-04-18T22:33:20.745Z,444.55
2023-04-18T22:37:35.737Z,506.92
2023-04-18T22:40:02.441Z,578.25
2023-04-18T22:42:30.033Z,584.25
2023-04-18T22:44:56.715Z,558.47
2023-04-18T22:47:23.403Z,543.60
2023-04-18T22:49:49.863Z,540.80
2023-04-18T22:52:16.625Z,534.25
2023-04-18T22:54:43.158Z,524.08
2023-04-18T22:57:10.066Z,517.92
2023-04-18T22:59:36.692Z,512.17
2023-04-18T23:02:03.446Z,496.83
2023-04-18T23:04:30.170Z,491.13
2023-04-18T23:06:57.066Z,491.90
2023-04-18T23:09:24.088Z,484.80
2023-04-18T23:11:50.953Z,483.85
2023-04-18T23:14:17.449Z,473.98
2023-04-18T23:16:43.997Z,476.98
2023-04-18T23:19:10.498Z,469.45
2023-04-18T23:21:37.584Z,448.52
2023-04-18T23:24:04.074Z,462.52
2023-04-18T23:26:31.582Z,455.90
2023-04-18T23:28:58.902Z,452.27
2023-04-18T23:31:25.590Z,443.70
2023-04-18T23:33:52.125Z,452.20
2023-04-18T23:36:18.668Z,445.27
2023-04-18T23:38:45.118Z,444.58
2023-04-18T23:41:11.640Z,425.20
2023-04-18T23:43:38.273Z,419.50
2023-04-18T23:46:05.024Z,410.88
2023-04-18T23:48:31.870Z,405.15
2023-04-18T23:50:58.514Z,400.83
2023-04-18T23:53:25.509Z,397.92
2023-04-18T23:55:52.064Z,395.00
2023-04-18T23:58:18.709Z,382.05
